sensor_id;sensor_type;location;lat;lon;timestamp;P1;durP1;ratioP1;P2;durP2;ratioP2
30681;SDS011;17439;48.092;11.842;2022-07-18T00:01:21;8.45;;;4.25;;
30681;SDS011;17439;48.092;11.842;2022-07-18T00:03:48;9.35;;;5.05;;
30681;SDS011;17439;48.092;11.842;2022-07-18T00:06:15;5.90;;;3.17;;
30681;SDS011;17439;48.092;11.842;2022-07-18T00:08:41;7.85;;;2.72;;
30681;SDS011;17439;48.092;11.842;2022-07-18T00:11:08;4.38;;;2.20;;
30681;SDS011;17439;48.092;11.842;2022-07-18T00:13:34;3.53;;;2.30;;
30681;SDS011;17439;48.092;11.842;2022-07-18T00:16:01;7.90;;;4.20;;
30681;SDS011;17439;48.092;11.842;2022-07-18T00:18:28;10.98;;;4.13;;
30681;SDS011;17439;48.092;11.842;2022-07-18T00:20:55;9.27;;;4.25;;
30681;SDS011;17439;48.092;11.842;2022-07-18T00:23:23;12.88;;;6.57;;
30681;SDS011;17439;48.092;11.842;2022-07-18T00:25:50;11.07;;;5.93;;
30681;SDS011;17439;48.092;11.842;2022-07-18T00:28:16;7.03;;;4.15;;
30681;SDS011;17439;48.092;11.842;2022-07-18T00:30:43;4.97;;;2.75;;
30681;SDS011;17439;48.092;11.842;2022-07-18T00:33:10;5.53;;;2.60;;
30681;SDS011;17439;48.092;11.842;2022-07-18T00:35:36;2.25;;;1.40;;
30681;SDS011;17439;48.092;11.842;2022-07-18T00:38:03;2.22;;;1.73;;
30681;SDS011;17439;48.092;11.842;2022-07-18T00:40:30;2.42;;;1.38;;
30681;SDS011;17439;48.092;11.842;2022-07-18T00:42:58;3.65;;;1.50;;
30681;SDS011;17439;48.092;11.842;2022-07-18T00:45:25;3.15;;;2.05;;
30681;SDS011;17439;48.092;11.842;2022-07-18T00:47:51;3.28;;;1.80;;
30681;SDS011;17439;48.092;11.842;2022-07-18T00:50:18;5.32;;;2.30;;
30681;SDS011;17439;48.092;11.842;2022-07-18T00:52:45;2.17;;;1.67;;
30681;SDS011;17439;48.092;11.842;2022-07-18T00:55:12;2.13;;;1.60;;
30681;SDS011;17439;48.092;11.842;2022-07-18T00:57:40;5.43;;;1.90;;
30681;SDS011;17439;48.092;11.842;2022-07-18T01:00:14;6.00;;;1.75;;
30681;SDS011;17439;48.092;11.842;2022-07-18T01:02:41;2.72;;;1.67;;
30681;SDS011;17439;48.092;11.842;2022-07-18T01:05:08;1.40;;;1.20;;
30681;SDS011;17439;48.092;11.842;2022-07-18T01:07:35;1.30;;;1.17;;
30681;SDS011;17439;48.092;11.842;2022-07-18T01:10:04;2.85;;;1.13;;
30681;SDS011;17439;48.092;11.842;2022-07-18T01:12:32;2.00;;;1.40;;
30681;SDS011;17439;48.092;11.842;2022-07-18T01:15:01;1.77;;;1.65;;
30681;SDS011;17439;48.092;11.842;2022-07-18T01:17:29;3.53;;;1.58;;
30681;SDS011;17439;48.092;11.842;2022-07-18T01:20:00;2.28;;;1.40;;
30681;SDS011;17439;48.092;11.842;2022-07-18T01:22:27;2.95;;;1.50;;
30681;SDS011;17439;48.092;11.842;2022-07-18T01:24:54;2.38;;;1.67;;
30681;SDS011;17439;48.092;11.842;2022-07-18T01:27:21;2.60;;;1.42;;
30681;SDS011;17439;48.092;11.842;2022-07-18T01:29:49;2.05;;;1.45;;
30681;SDS011;17439;48.092;11.842;2022-07-18T01:32:17;3.60;;;1.35;;
30681;SDS011;17439;48.092;11.842;2022-07-18T01:34:44;4.13;;;1.90;;
30681;SDS011;17439;48.092;11.842;2022-07-18T01:37:13;4.90;;;2.53;;
30681;SDS011;17439;48.092;11.842;2022-07-18T01:39:40;2.75;;;2.05;;
30681;SDS011;17439;48.092;11.842;2022-07-18T01:42:07;2.28;;;1.77;;
30681;SDS011;17439;48.092;11.842;2022-07-18T01:44:35;2.78;;;1.70;;
30681;SDS011;17439;48.092;11.842;2022-07-18T01:49:33;1.48;;;1.30;;
30681;SDS011;17439;48.092;11.842;2022-07-18T01:52:00;3.50;;;1.70;;
30681;SDS011;17439;48.092;11.842;2022-07-18T01:54:28;2.63;;;1.42;;
30681;SDS011;17439;48.092;11.842;2022-07-18T01:56:58;3.22;;;1.60;;
30681;SDS011;17439;48.092;11.842;2022-07-18T01:59:26;2.22;;;1.75;;
30681;SDS011;17439;48.092;11.842;2022-07-18T02:01:53;1.80;;;1.50;;
30681;SDS011;17439;48.092;11.842;2022-07-18T02:04:20;2.00;;;1.48;;
30681;SDS011;17439;48.092;11.842;2022-07-18T02:06:47;1.90;;;1.63;;
30681;SDS011;17439;48.092;11.842;2022-07-18T02:09:14;1.92;;;1.25;;
30681;SDS011;17439;48.092;11.842;2022-07-18T02:11:41;1.90;;;1.30;;
30681;SDS011;17439;48.092;11.842;2022-07-18T02:14:07;2.28;;;1.35;;
30681;SDS011;17439;48.092;11.842;2022-07-18T02:16:34;3.33;;;2.00;;
30681;SDS011;17439;48.092;11.842;2022-07-18T02:19:01;2.78;;;1.60;;
30681;SDS011;17439;48.092;11.842;2022-07-18T02:21:27;2.53;;;1.50;;
30681;SDS011;17439;48.092;11.842;2022-07-18T02:23:54;3.75;;;1.60;;
30681;SDS011;17439;48.092;11.842;2022-07-18T02:26:21;2.05;;;1.60;;
30681;SDS011;17439;48.092;11.842;2022-07-18T02:28:47;1.58;;;1.38;;
30681;SDS011;17439;48.092;11.842;2022-07-18T02:31:14;1.80;;;1.70;;
30681;SDS011;17439;48.092;11.842;2022-07-18T02:33:41;1.70;;;1.30;;
30681;SDS011;17439;48.092;11.842;2022-07-18T02:36:07;2.83;;;1.60;;
30681;SDS011;17439;48.092;11.842;2022-07-18T02:38:34;1.23;;;1.05;;
30681;SDS011;17439;48.092;11.842;2022-07-18T02:41:01;2.58;;;1.85;;
30681;SDS011;17439;48.092;11.842;2022-07-18T02:43:28;1.90;;;1.60;;
30681;SDS011;17439;48.092;11.842;2022-07-18T02:45:54;2.85;;;1.60;;
30681;SDS011;17439;48.092;11.842;2022-07-18T02:48:21;2.50;;;2.30;;
30681;SDS011;17439;48.092;11.842;2022-07-18T02:50:48;2.65;;;1.45;;
30681;SDS011;17439;48.092;11.842;2022-07-18T02:53:14;2.40;;;1.60;;
30681;SDS011;17439;48.092;11.842;2022-07-18T02:55:41;1.70;;;1.60;;
30681;SDS011;17439;48.092;11.842;2022-07-18T02:58:07;1.80;;;1.70;;
30681;SDS011;17439;48.092;11.842;2022-07-18T03:00:34;3.42;;;1.83;;
30681;SDS011;17439;48.092;11.842;2022-07-18T03:03:01;4.45;;;1.90;;
30681;SDS011;17439;48.092;11.842;2022-07-18T03:05:27;2.70;;;1.80;;
30681;SDS011;17439;48.092;11.842;2022-07-18T03:07:54;1.83;;;1.33;;
30681;SDS011;17439;48.092;11.842;2022-07-18T03:10:21;3.17;;;1.65;;
30681;SDS011;17439;48.092;11.842;2022-07-18T03:12:47;2.72;;;1.77;;
30681;SDS011;17439;48.092;11.842;2022-07-18T03:15:14;2.17;;;1.42;;
30681;SDS011;17439;48.092;11.842;2022-07-18T03:17:41;4.57;;;2.08;;
30681;SDS011;17439;48.092;11.842;2022-07-18T03:20:07;2.33;;;1.58;;
30681;SDS011;17439;48.092;11.842;2022-07-18T03:22:35;3.70;;;1.80;;
30681;SDS011;17439;48.092;11.842;2022-07-18T03:25:01;1.90;;;1.27;;
30681;SDS011;17439;48.092;11.842;2022-07-18T03:27:28;2.72;;;1.23;;
30681;SDS011;17439;48.092;11.842;2022-07-18T03:29:55;2.63;;;2.00;;
30681;SDS011;17439;48.092;11.842;2022-07-18T03:32:22;4.72;;;1.83;;
30681;SDS011;17439;48.092;11.842;2022-07-18T03:34:48;2.40;;;1.42;;
30681;SDS011;17439;48.092;11.842;2022-07-18T03:37:15;3.30;;;1.60;;
30681;SDS011;17439;48.092;11.842;2022-07-18T03:39:42;2.25;;;1.90;;
30681;SDS011;17439;48.092;11.842;2022-07-18T03:42:08;2.97;;;1.70;;
30681;SDS011;17439;48.092;11.842;2022-07-18T03:44:35;2.58;;;1.52;;
30681;SDS011;17439;48.092;11.842;2022-07-18T03:47:02;3.78;;;1.40;;
30681;SDS011;17439;48.092;11.842;2022-07-18T03:49:28;3.53;;;1.95;;
30681;SDS011;17439;48.092;11.842;2022-07-18T03:51:55;3.38;;;1.65;;
30681;SDS011;17439;48.092;11.842;2022-07-18T03:54:22;2.28;;;1.92;;
30681;SDS011;17439;48.092;11.842;2022-07-18T03:56:49;2.88;;;1.92;;
30681;SDS011;17439;48.092;11.842;2022-07-18T03:59:16;5.15;;;1.50;;
30681;SDS011;17439;48.092;11.842;2022-07-18T04:01:43;2.53;;;1.58;;
30681;SDS011;17439;48.092;11.842;2022-07-18T04:04:09;2.65;;;1.42;;
30681;SDS011;17439;48.092;11.842;2022-07-18T04:06:36;1.70;;;1.40;;
30681;SDS011;17439;48.092;11.842;2022-07-18T04:09:03;2.05;;;1.70;;
30681;SDS011;17439;48.092;11.842;2022-07-18T04:11:30;3.17;;;1.60;;
30681;SDS011;17439;48.092;11.842;2022-07-18T04:13:57;3.10;;;1.40;;
30681;SDS011;17439;48.092;11.842;2022-07-18T04:16:24;1.80;;;1.50;;
30681;SDS011;17439;48.092;11.842;2022-07-18T04:18:51;4.00;;;2.13;;
30681;SDS011;17439;48.092;11.842;2022-07-18T04:21:17;2.42;;;1.70;;
30681;SDS011;17439;48.092;11.842;2022-07-18T04:23:44;2.30;;;1.60;;
30681;SDS011;17439;48.092;11.842;2022-07-18T04:26:11;2.47;;;1.98;;
30681;SDS011;17439;48.092;11.842;2022-07-18T04:28:37;6.95;;;1.98;;
30681;SDS011;17439;48.092;11.842;2022-07-18T04:31:04;2.53;;;1.70;;
30681;SDS011;17439;48.092;11.842;2022-07-18T04:33:31;4.93;;;1.98;;
30681;SDS011;17439;48.092;11.842;2022-07-18T04:35:58;2.53;;;1.88;;
30681;SDS011;17439;48.092;11.842;2022-07-18T04:38:24;2.13;;;1.48;;
30681;SDS011;17439;48.092;11.842;2022-07-18T04:40:51;2.20;;;1.95;;
30681;SDS011;17439;48.092;11.842;2022-07-18T04:43:17;1.80;;;1.45;;
30681;SDS011;17439;48.092;11.842;2022-07-18T04:45:44;2.47;;;1.85;;
30681;SDS011;17439;48.092;11.842;2022-07-18T04:48:11;3.45;;;1.80;;
30681;SDS011;17439;48.092;11.842;2022-07-18T04:50:37;3.22;;;2.00;;
30681;SDS011;17439;48.092;11.842;2022-07-18T04:53:04;2.25;;;1.85;;
30681;SDS011;17439;48.092;11.842;2022-07-18T04:55:30;2.22;;;1.70;;
30681;SDS011;17439;48.092;11.842;2022-07-18T04:57:57;2.90;;;1.70;;
30681;SDS011;17439;48.092;11.842;2022-07-18T05:00:24;2.28;;;2.08;;
30681;SDS011;17439;48.092;11.842;2022-07-18T05:02:53;2.13;;;1.92;;
30681;SDS011;17439;48.092;11.842;2022-07-18T05:05:21;2.10;;;1.75;;
30681;SDS011;17439;48.092;11.842;2022-07-18T05:07:48;4.57;;;1.92;;
30681;SDS011;17439;48.092;11.842;2022-07-18T05:10:15;2.40;;;1.90;;
30681;SDS011;17439;48.092;11.842;2022-07-18T05:12:44;3.13;;;1.77;;
30681;SDS011;17439;48.092;11.842;2022-07-18T05:15:15;4.55;;;2.00;;
30681;SDS011;17439;48.092;11.842;2022-07-18T05:17:43;2.67;;;1.85;;
30681;SDS011;17439;48.092;11.842;2022-07-18T05:20:12;2.53;;;1.52;;
30681;SDS011;17439;48.092;11.842;2022-07-18T05:22:42;2.08;;;1.60;;
30681;SDS011;17439;48.092;11.842;2022-07-18T05:25:09;2.25;;;1.90;;
30681;SDS011;17439;48.092;11.842;2022-07-18T05:27:36;3.45;;;1.77;;
30681;SDS011;17439;48.092;11.842;2022-07-18T05:30:04;2.83;;;1.77;;
30681;SDS011;17439;48.092;11.842;2022-07-18T05:32:32;3.00;;;2.15;;
30681;SDS011;17439;48.092;11.842;2022-07-18T05:34:59;2.33;;;1.67;;
30681;SDS011;17439;48.092;11.842;2022-07-18T05:37:26;3.53;;;1.60;;
30681;SDS011;17439;48.092;11.842;2022-07-18T05:39:53;2.95;;;1.75;;
30681;SDS011;17439;48.092;11.842;2022-07-18T05:42:20;1.88;;;1.67;;
30681;SDS011;17439;48.092;11.842;2022-07-18T05:45:07;1.98;;;1.40;;
30681;SDS011;17439;48.092;11.842;2022-07-18T05:47:34;4.88;;;1.45;;
30681;SDS011;17439;48.092;11.842;2022-07-18T05:50:01;2.00;;;1.70;;
30681;SDS011;17439;48.092;11.842;2022-07-18T05:52:28;14.40;;;1.98;;
30681;SDS011;17439;48.092;11.842;2022-07-18T05:54:54;7.18;;;2.53;;
30681;SDS011;17439;48.092;11.842;2022-07-18T05:57:21;3.70;;;2.10;;
30681;SDS011;17439;48.092;11.842;2022-07-18T05:59:47;4.82;;;2.03;;
30681;SDS011;17439;48.092;11.842;2022-07-18T06:02:14;4.13;;;1.90;;
30681;SDS011;17439;48.092;11.842;2022-07-18T06:04:41;4.72;;;1.70;;
30681;SDS011;17439;48.092;11.842;2022-07-18T06:07:27;5.28;;;1.80;;
30681;SDS011;17439;48.092;11.842;2022-07-18T06:09:54;2.67;;;1.52;;
30681;SDS011;17439;48.092;11.842;2022-07-18T06:12:21;2.95;;;1.85;;
30681;SDS011;17439;48.092;11.842;2022-07-18T06:14:48;2.67;;;1.67;;
30681;SDS011;17439;48.092;11.842;2022-07-18T06:17:14;1.88;;;1.60;;
30681;SDS011;17439;48.092;11.842;2022-07-18T06:19:41;2.42;;;1.60;;
30681;SDS011;17439;48.092;11.842;2022-07-18T06:22:08;6.85;;;2.17;;
30681;SDS011;17439;48.092;11.842;2022-07-18T06:24:35;6.20;;;2.05;;
30681;SDS011;17439;48.092;11.842;2022-07-18T06:27:02;3.92;;;1.90;;
30681;SDS011;17439;48.092;11.842;2022-07-18T06:29:28;4.88;;;1.90;;
30681;SDS011;17439;48.092;11.842;2022-07-18T06:31:55;5.63;;;2.13;;
30681;SDS011;17439;48.092;11.842;2022-07-18T06:34:22;2.97;;;1.85;;
30681;SDS011;17439;48.092;11.842;2022-07-18T06:36:48;2.20;;;1.70;;
30681;SDS011;17439;48.092;11.842;2022-07-18T06:39:15;2.17;;;1.55;;
30681;SDS011;17439;48.092;11.842;2022-07-18T06:41:42;3.65;;;1.60;;
30681;SDS011;17439;48.092;11.842;2022-07-18T06:44:12;2.08;;;1.70;;
30681;SDS011;17439;48.092;11.842;2022-07-18T06:46:39;3.03;;;1.92;;
30681;SDS011;17439;48.092;11.842;2022-07-18T06:49:06;4.88;;;1.67;;
30681;SDS011;17439;48.092;11.842;2022-07-18T06:51:33;5.47;;;1.60;;
30681;SDS011;17439;48.092;11.842;2022-07-18T06:54:01;1.77;;;1.40;;
30681;SDS011;17439;48.092;11.842;2022-07-18T06:56:27;2.88;;;2.08;;
30681;SDS011;17439;48.092;11.842;2022-07-18T06:58:54;6.88;;;1.40;;
30681;SDS011;17439;48.092;11.842;2022-07-18T07:01:21;2.00;;;1.33;;
30681;SDS011;17439;48.092;11.842;2022-07-18T07:03:47;2.10;;;1.60;;
30681;SDS011;17439;48.092;11.842;2022-07-18T07:06:14;2.55;;;1.45;;
30681;SDS011;17439;48.092;11.842;2022-07-18T07:08:41;2.92;;;1.70;;
30681;SDS011;17439;48.092;11.842;2022-07-18T07:11:09;2.22;;;1.50;;
30681;SDS011;17439;48.092;11.842;2022-07-18T07:13:35;1.50;;;1.33;;
30681;SDS011;17439;48.092;11.842;2022-07-18T07:16:02;1.98;;;1.65;;
30681;SDS011;17439;48.092;11.842;2022-07-18T07:18:29;2.03;;;1.50;;
30681;SDS011;17439;48.092;11.842;2022-07-18T07:20:56;1.77;;;1.40;;
30681;SDS011;17439;48.092;11.842;2022-07-18T07:23:23;3.08;;;1.80;;
30681;SDS011;17439;48.092;11.842;2022-07-18T07:25:49;3.55;;;1.73;;
30681;SDS011;17439;48.092;11.842;2022-07-18T07:28:16;1.90;;;1.70;;
30681;SDS011;17439;48.092;11.842;2022-07-18T07:30:43;4.55;;;1.58;;
30681;SDS011;17439;48.092;11.842;2022-07-18T07:33:09;4.13;;;1.58;;
30681;SDS011;17439;48.092;11.842;2022-07-18T07:35:36;1.33;;;1.23;;
30681;SDS011;17439;48.092;11.842;2022-07-18T07:38:03;4.43;;;1.33;;
30681;SDS011;17439;48.092;11.842;2022-07-18T07:40:29;2.80;;;1.63;;
30681;SDS011;17439;48.092;11.842;2022-07-18T07:43:09;2.72;;;2.00;;
30681;SDS011;17439;48.092;11.842;2022-07-18T07:45:37;2.60;;;1.38;;
30681;SDS011;17439;48.092;11.842;2022-07-18T07:48:05;2.37;;;1.60;;
30681;SDS011;17439;48.092;11.842;2022-07-18T07:50:32;2.65;;;1.63;;
30681;SDS011;17439;48.092;11.842;2022-07-18T07:52:59;2.25;;;1.48;;
30681;SDS011;17439;48.092;11.842;2022-07-18T07:55:27;1.80;;;1.60;;
30681;SDS011;17439;48.092;11.842;2022-07-18T07:57:54;1.92;;;1.33;;
30681;SDS011;17439;48.092;11.842;2022-07-18T08:00:21;2.10;;;1.42;;
30681;SDS011;17439;48.092;11.842;2022-07-18T08:02:54;2.50;;;1.30;;
30681;SDS011;17439;48.092;11.842;2022-07-18T08:05:26;2.85;;;1.75;;
30681;SDS011;17439;48.092;11.842;2022-07-18T08:07:57;1.90;;;1.50;;
30681;SDS011;17439;48.092;11.842;2022-07-18T08:12:51;4.10;;;1.53;;
30681;SDS011;17439;48.092;11.842;2022-07-18T08:15:18;2.10;;;1.35;;
30681;SDS011;17439;48.092;11.842;2022-07-18T08:17:45;4.85;;;1.85;;
30681;SDS011;17439;48.092;11.842;2022-07-18T08:20:13;2.28;;;1.45;;
30681;SDS011;17439;48.092;11.842;2022-07-18T08:23:00;1.73;;;1.45;;
30681;SDS011;17439;48.092;11.842;2022-07-18T08:25:30;2.97;;;1.20;;
30681;SDS011;17439;48.092;11.842;2022-07-18T08:27:58;6.10;;;1.10;;
30681;SDS011;17439;48.092;11.842;2022-07-18T08:30:26;2.70;;;1.25;;
30681;SDS011;17439;48.092;11.842;2022-07-18T08:32:53;1.67;;;1.33;;
30681;SDS011;17439;48.092;11.842;2022-07-18T08:35:20;1.33;;;1.20;;
30681;SDS011;17439;48.092;11.842;2022-07-18T08:37:48;1.20;;;1.10;;
30681;SDS011;17439;48.092;11.842;2022-07-18T08:40:15;3.33;;;1.25;;
30681;SDS011;17439;48.092;11.842;2022-07-18T08:42:41;1.33;;;0.98;;
30681;SDS011;17439;48.092;11.842;2022-07-18T08:45:28;4.25;;;1.30;;
30681;SDS011;17439;48.092;11.842;2022-07-18T08:47:55;2.33;;;1.20;;
30681;SDS011;17439;48.092;11.842;2022-07-18T08:50:22;4.80;;;1.63;;
30681;SDS011;17439;48.092;11.842;2022-07-18T08:52:49;1.10;;;0.98;;
30681;SDS011;17439;48.092;11.842;2022-07-18T08:55:19;3.63;;;1.05;;
30681;SDS011;17439;48.092;11.842;2022-07-18T08:57:51;3.85;;;1.02;;
30681;SDS011;17439;48.092;11.842;2022-07-18T09:00:17;0.95;;;0.85;;
30681;SDS011;17439;48.092;11.842;2022-07-18T09:02:44;1.70;;;1.15;;
30681;SDS011;17439;48.092;11.842;2022-07-18T09:05:18;2.50;;;1.30;;
30681;SDS011;17439;48.092;11.842;2022-07-18T09:08:08;3.40;;;1.10;;
30681;SDS011;17439;48.092;11.842;2022-07-18T09:10:46;2.20;;;1.00;;
30681;SDS011;17439;48.092;11.842;2022-07-18T09:18:27;1.70;;;1.30;;
30681;SDS011;17439;48.092;11.842;2022-07-18T09:25:58;4.07;;;1.10;;
30681;SDS011;17439;48.092;11.842;2022-07-18T09:28:25;2.47;;;1.27;;
30681;SDS011;17439;48.092;11.842;2022-07-18T09:30:53;3.92;;;1.55;;
30681;SDS011;17439;48.092;11.842;2022-07-18T09:33:20;2.42;;;1.23;;
30681;SDS011;17439;48.092;11.842;2022-07-18T09:35:48;2.03;;;1.70;;
30681;SDS011;17439;48.092;11.842;2022-07-18T09:38:19;1.27;;;1.00;;
30681;SDS011;17439;48.092;11.842;2022-07-18T09:40:48;0.90;;;0.90;;
30681;SDS011;17439;48.092;11.842;2022-07-18T09:43:17;1.35;;;1.00;;
30681;SDS011;17439;48.092;11.842;2022-07-18T09:45:49;1.50;;;1.15;;
30681;SDS011;17439;48.092;11.842;2022-07-18T09:48:19;4.45;;;1.23;;
30681;SDS011;17439;48.092;11.842;2022-07-18T09:50:51;1.20;;;0.98;;
30681;SDS011;17439;48.092;11.842;2022-07-18T09:53:20;2.97;;;1.08;;
30681;SDS011;17439;48.092;11.842;2022-07-18T09:56:00;3.25;;;1.27;;
30681;SDS011;17439;48.092;11.842;2022-07-18T09:58:35;1.20;;;1.00;;
30681;SDS011;17439;48.092;11.842;2022-07-18T10:01:07;1.67;;;1.00;;
30681;SDS011;17439;48.092;11.842;2022-07-18T10:03:35;2.13;;;0.98;;
30681;SDS011;17439;48.092;11.842;2022-07-18T10:06:03;2.15;;;1.00;;
30681;SDS011;17439;48.092;11.842;2022-07-18T10:08:30;1.27;;;1.00;;
30681;SDS011;17439;48.092;11.842;2022-07-18T10:11:00;1.08;;;0.93;;
30681;SDS011;17439;48.092;11.842;2022-07-18T10:13:28;1.48;;;0.88;;
30681;SDS011;17439;48.092;11.842;2022-07-18T10:15:56;0.88;;;0.60;;
30681;SDS011;17439;48.092;11.842;2022-07-18T10:18:28;5.15;;;1.00;;
30681;SDS011;17439;48.092;11.842;2022-07-18T10:20:57;0.88;;;0.65;;
30681;SDS011;17439;48.092;11.842;2022-07-18T10:23:26;1.25;;;0.70;;
30681;SDS011;17439;48.092;11.842;2022-07-18T10:31:25;2.70;;;1.00;;
30681;SDS011;17439;48.092;11.842;2022-07-18T10:33:53;1.10;;;1.00;;
30681;SDS011;17439;48.092;11.842;2022-07-18T10:36:21;4.50;;;0.88;;
30681;SDS011;17439;48.092;11.842;2022-07-18T10:39:08;0.77;;;0.75;;
30681;SDS011;17439;48.092;11.842;2022-07-18T10:57:33;3.85;;;0.90;;
30681;SDS011;17439;48.092;11.842;2022-07-18T11:00:12;0.80;;;0.80;;
30681;SDS011;17439;48.092;11.842;2022-07-18T11:02:44;3.03;;;0.95;;
30681;SDS011;17439;48.092;11.842;2022-07-18T11:16:01;1.10;;;0.80;;
30681;SDS011;17439;48.092;11.842;2022-07-18T11:18:30;1.00;;;0.80;;
30681;SDS011;17439;48.092;11.842;2022-07-18T11:21:26;2.00;;;1.00;;
30681;SDS011;17439;48.092;11.842;2022-07-18T11:24:09;2.28;;;0.80;;
30681;SDS011;17439;48.092;11.842;2022-07-18T11:26:37;1.85;;;1.20;;
30681;SDS011;17439;48.092;11.842;2022-07-18T11:29:09;1.77;;;0.80;;
30681;SDS011;17439;48.092;11.842;2022-07-18T11:31:42;2.35;;;1.27;;
30681;SDS011;17439;48.092;11.842;2022-07-18T11:34:16;1.40;;;1.20;;
30681;SDS011;17439;48.092;11.842;2022-07-18T11:36:45;1.52;;;1.05;;
30681;SDS011;17439;48.092;11.842;2022-07-18T11:39:13;1.15;;;0.70;;
30681;SDS011;17439;48.092;11.842;2022-07-18T11:44:17;1.15;;;0.70;;
30681;SDS011;17439;48.092;11.842;2022-07-18T11:46:44;0.85;;;0.65;;
30681;SDS011;17439;48.092;11.842;2022-07-18T11:49:11;2.30;;;0.73;;
30681;SDS011;17439;48.092;11.842;2022-07-18T11:51:39;0.47;;;0.47;;
30681;SDS011;17439;48.092;11.842;2022-07-18T11:54:09;2.03;;;0.70;;
30681;SDS011;17439;48.092;11.842;2022-07-18T11:56:49;1.60;;;1.10;;
30681;SDS011;17439;48.092;11.842;2022-07-18T11:59:18;0.82;;;0.80;;
30681;SDS011;17439;48.092;11.842;2022-07-18T12:01:45;0.95;;;0.80;;
30681;SDS011;17439;48.092;11.842;2022-07-18T12:04:18;1.70;;;0.70;;
30681;SDS011;17439;48.092;11.842;2022-07-18T12:09:47;1.83;;;0.60;;
30681;SDS011;17439;48.092;11.842;2022-07-18T12:12:15;1.10;;;0.80;;
30681;SDS011;17439;48.092;11.842;2022-07-18T12:14:52;1.17;;;0.80;;
30681;SDS011;17439;48.092;11.842;2022-07-18T12:17:20;1.27;;;0.90;;
30681;SDS011;17439;48.092;11.842;2022-07-18T12:19:47;2.05;;;0.68;;
30681;SDS011;17439;48.092;11.842;2022-07-18T12:22:13;1.92;;;0.90;;
30681;SDS011;17439;48.092;11.842;2022-07-18T12:35:56;1.73;;;1.25;;
30681;SDS011;17439;48.092;11.842;2022-07-18T12:38:01;1.17;;;0.90;;
30681;SDS011;17439;48.092;11.842;2022-07-18T12:43:09;1.05;;;0.70;;
30681;SDS011;17439;48.092;11.842;2022-07-18T12:45:41;2.25;;;1.52;;
30681;SDS011;17439;48.092;11.842;2022-07-18T12:48:09;1.77;;;0.85;;
30681;SDS011;17439;48.092;11.842;2022-07-18T12:50:38;1.27;;;0.70;;
30681;SDS011;17439;48.092;11.842;2022-07-18T12:53:06;1.48;;;1.00;;
30681;SDS011;17439;48.092;11.842;2022-07-18T12:55:33;1.90;;;1.17;;
30681;SDS011;17439;48.092;11.842;2022-07-18T12:58:00;2.58;;;1.20;;
30681;SDS011;17439;48.092;11.842;2022-07-18T13:05:22;1.52;;;0.80;;
30681;SDS011;17439;48.092;11.842;2022-07-18T13:07:50;1.27;;;1.00;;
30681;SDS011;17439;48.092;11.842;2022-07-18T13:10:16;1.55;;;0.70;;
30681;SDS011;17439;48.092;11.842;2022-07-18T13:12:43;2.08;;;0.88;;
30681;SDS011;17439;48.092;11.842;2022-07-18T13:15:10;0.85;;;0.85;;
30681;SDS011;17439;48.092;11.842;2022-07-18T13:17:36;1.02;;;0.98;;
30681;SDS011;17439;48.092;11.842;2022-07-18T13:20:03;2.72;;;1.00;;
30681;SDS011;17439;48.092;11.842;2022-07-18T13:22:30;3.15;;;1.27;;
30681;SDS011;17439;48.092;11.842;2022-07-18T13:24:57;4.65;;;1.02;;
30681;SDS011;17439;48.092;11.842;2022-07-18T13:27:23;2.05;;;1.00;;
30681;SDS011;17439;48.092;11.842;2022-07-18T13:29:50;1.73;;;1.20;;
30681;SDS011;17439;48.092;11.842;2022-07-18T13:32:16;2.92;;;1.25;;
30681;SDS011;17439;48.092;11.842;2022-07-18T13:34:43;3.45;;;0.98;;
30681;SDS011;17439;48.092;11.842;2022-07-18T13:37:10;2.63;;;0.90;;
30681;SDS011;17439;48.092;11.842;2022-07-18T13:39:36;1.42;;;1.10;;
30681;SDS011;17439;48.092;11.842;2022-07-18T13:42:03;3.22;;;0.85;;
30681;SDS011;17439;48.092;11.842;2022-07-18T13:44:29;1.25;;;1.08;;
30681;SDS011;17439;48.092;11.842;2022-07-18T13:46:56;4.85;;;1.27;;
30681;SDS011;17439;48.092;11.842;2022-07-18T13:49:23;1.17;;;1.08;;
30681;SDS011;17439;48.092;11.842;2022-07-18T13:51:49;4.00;;;0.98;;
30681;SDS011;17439;48.092;11.842;2022-07-18T13:54:16;1.52;;;0.95;;
30681;SDS011;17439;48.092;11.842;2022-07-18T13:56:43;1.23;;;1.13;;
30681;SDS011;17439;48.092;11.842;2022-07-18T13:59:11;0.88;;;0.88;;
30681;SDS011;17439;48.092;11.842;2022-07-18T14:01:38;2.83;;;1.20;;
30681;SDS011;17439;48.092;11.842;2022-07-18T14:04:05;1.20;;;1.00;;
30681;SDS011;17439;48.092;11.842;2022-07-18T14:06:32;1.13;;;1.03;;
30681;SDS011;17439;48.092;11.842;2022-07-18T14:08:59;2.15;;;1.00;;
30681;SDS011;17439;48.092;11.842;2022-07-18T14:11:25;0.95;;;0.80;;
30681;SDS011;17439;48.092;11.842;2022-07-18T14:13:52;2.47;;;1.13;;
30681;SDS011;17439;48.092;11.842;2022-07-18T14:16:19;2.17;;;1.00;;
30681;SDS011;17439;48.092;11.842;2022-07-18T14:18:46;1.70;;;0.90;;
30681;SDS011;17439;48.092;11.842;2022-07-18T14:21:12;1.67;;;1.10;;
30681;SDS011;17439;48.092;11.842;2022-07-18T14:23:43;1.15;;;1.02;;
30681;SDS011;17439;48.092;11.842;2022-07-18T14:26:09;6.72;;;1.02;;
30681;SDS011;17439;48.092;11.842;2022-07-18T14:28:36;2.45;;;1.00;;
30681;SDS011;17439;48.092;11.842;2022-07-18T14:31:06;1.65;;;1.23;;
30681;SDS011;17439;48.092;11.842;2022-07-18T14:33:32;2.00;;;1.00;;
30681;SDS011;17439;48.092;11.842;2022-07-18T14:35:59;1.73;;;0.98;;
30681;SDS011;17439;48.092;11.842;2022-07-18T14:38:26;3.88;;;1.13;;
30681;SDS011;17439;48.092;11.842;2022-07-18T14:40:52;1.55;;;1.35;;
30681;SDS011;17439;48.092;11.842;2022-07-18T14:43:19;4.33;;;0.93;;
30681;SDS011;17439;48.092;11.842;2022-07-18T14:45:46;3.93;;;1.00;;
30681;SDS011;17439;48.092;11.842;2022-07-18T14:48:28;3.70;;;1.10;;
30681;SDS011;17439;48.092;11.842;2022-07-18T14:50:55;1.83;;;1.10;;
30681;SDS011;17439;48.092;11.842;2022-07-18T14:53:22;1.85;;;1.30;;
30681;SDS011;17439;48.092;11.842;2022-07-18T14:55:49;1.75;;;0.98;;
30681;SDS011;17439;48.092;11.842;2022-07-18T14:58:17;1.83;;;1.02;;
30681;SDS011;17439;48.092;11.842;2022-07-18T15:00:45;2.47;;;1.23;;
30681;SDS011;17439;48.092;11.842;2022-07-18T15:03:12;2.15;;;1.13;;
30681;SDS011;17439;48.092;11.842;2022-07-18T15:05:59;1.80;;;1.33;;
30681;SDS011;17439;48.092;11.842;2022-07-18T15:08:25;2.33;;;1.45;;
30681;SDS011;17439;48.092;11.842;2022-07-18T15:10:52;1.13;;;1.00;;
30681;SDS011;17439;48.092;11.842;2022-07-18T15:13:18;4.38;;;1.10;;
30681;SDS011;17439;48.092;11.842;2022-07-18T15:15:45;1.57;;;0.80;;
30681;SDS011;17439;48.092;11.842;2022-07-18T15:18:12;1.10;;;1.00;;
30681;SDS011;17439;48.092;11.842;2022-07-18T15:20:38;1.48;;;0.82;;
30681;SDS011;17439;48.092;11.842;2022-07-18T15:23:11;1.33;;;1.00;;
30681;SDS011;17439;48.092;11.842;2022-07-18T15:25:37;1.30;;;1.05;;
30681;SDS011;17439;48.092;11.842;2022-07-18T15:28:04;1.07;;;0.70;;
30681;SDS011;17439;48.092;11.842;2022-07-18T15:30:31;0.73;;;0.73;;
30681;SDS011;17439;48.092;11.842;2022-07-18T15:33:12;4.50;;;1.15;;
30681;SDS011;17439;48.092;11.842;2022-07-18T15:35:39;0.80;;;0.80;;
30681;SDS011;17439;48.092;11.842;2022-07-18T15:38:05;1.97;;;1.40;;
30681;SDS011;17439;48.092;11.842;2022-07-18T15:40:32;1.20;;;1.07;;
30681;SDS011;17439;48.092;11.842;2022-07-18T15:42:59;1.13;;;0.90;;
30681;SDS011;17439;48.092;11.842;2022-07-18T15:45:26;3.90;;;1.05;;
30681;SDS011;17439;48.092;11.842;2022-07-18T15:47:53;1.58;;;0.85;;
30681;SDS011;17439;48.092;11.842;2022-07-18T15:50:20;2.83;;;0.90;;